createdAt,value
2017-06-24T00:00:53.502Z,0
2017-06-24T00:01:53.172Z,0
2017-06-24T00:02:53.166Z,0
2017-06-24T00:03:53.462Z,0
2017-06-24T00:04:52.827Z,0
2017-06-24T00:05:53.151Z,0
2017-06-24T00:06:52.819Z,0
2017-06-24T00:07:53.114Z,0
2017-06-24T00:08:52.820Z,0
2017-06-24T00:09:52.775Z,0
2017-06-24T00:10:53.089Z,0
2017-06-24T00:11:52.765Z,0
2017-06-24T00:12:53.072Z,0
2017-06-24T00:13:53.375Z,0
2017-06-24T00:14:53.360Z,0
2017-06-24T00:15:52.729Z,0
2017-06-24T00:16:53.028Z,0
2017-06-24T00:17:53.015Z,0
2017-06-24T00:18:53.034Z,0
2017-06-24T00:19:52.887Z,0
2017-06-24T00:20:52.987Z,0
2017-06-24T00:21:52.668Z,0
2017-06-24T00:22:52.971Z,0
2017-06-24T00:23:52.959Z,0
2017-06-24T00:24:52.648Z,0
2017-06-24T00:25:53.259Z,0
2017-06-24T00:26:52.929Z,0
2017-06-24T00:27:52.606Z,0
2017-06-24T00:28:52.600Z,0
2017-06-24T00:29:52.905Z,0
2017-06-24T00:30:52.893Z,0
2017-06-24T00:31:51.946Z,0
2017-06-24T00:32:53.179Z,0
2017-06-24T00:33:53.170Z,0
2017-06-24T00:34:52.231Z,0
2017-06-24T00:35:52.841Z,0
2017-06-24T00:36:53.150Z,0
2017-06-24T00:37:53.146Z,0
2017-06-24T00:38:52.498Z,0
2017-06-24T00:39:52.853Z,0
2017-06-24T00:40:52.993Z,0
2017-06-24T00:41:52.786Z,0
2017-06-24T00:42:52.147Z,0
2017-06-24T00:43:52.769Z,0
2017-06-24T00:44:52.130Z,0
2017-06-24T00:45:53.059Z,0
2017-06-24T00:46:53.049Z,0
2017-06-24T00:47:53.047Z,0
2017-06-24T00:48:52.402Z,0
2017-06-24T00:49:52.424Z,0
2017-06-24T00:50:52.699Z,0
2017-06-24T00:51:52.368Z,0
2017-06-24T00:52:52.362Z,0
2017-06-24T00:53:52.672Z,0
2017-06-24T00:54:52.660Z,0
2017-06-24T00:55:52.643Z,0
2017-06-24T00:56:52.325Z,0
2017-06-24T00:57:52.632Z,0
2017-06-24T00:58:52.305Z,0
2017-06-24T00:59:51.989Z,0
2017-06-24T01:00:52.598Z,0
2017-06-24T01:01:52.275Z,0
2017-06-24T01:02:52.586Z,0
2017-06-24T01:03:52.885Z,0
2017-06-24T01:04:52.553Z,0
2017-06-24T01:05:52.856Z,0
2017-06-24T01:06:52.554Z,0
2017-06-24T01:07:52.211Z,0
2017-06-24T01:08:52.200Z,0
2017-06-24T01:09:51.876Z,0
2017-06-24T01:10:52.503Z,0
2017-06-24T01:11:52.173Z,0
2017-06-24T01:12:52.475Z,0
2017-06-24T01:13:52.465Z,0
2017-06-24T01:14:52.146Z,0
2017-06-24T01:15:52.472Z,0
2017-06-24T01:16:52.436Z,0
2017-06-24T01:17:52.423Z,0
2017-06-24T01:18:52.097Z,0
2017-06-24T01:19:52.091Z,0
2017-06-24T01:20:52.088Z,0
2017-06-24T01:21:52.699Z,0
2017-06-24T01:22:52.379Z,0
2017-06-24T01:23:52.682Z,0
2017-06-24T01:24:52.667Z,0
2017-06-24T01:25:52.036Z,0
2017-06-24T01:26:52.344Z,0
2017-06-24T01:27:52.324Z,0
2017-06-24T01:28:51.687Z,0
2017-06-24T01:29:52.615Z,0
2017-06-24T01:30:52.604Z,0
2017-06-24T01:31:52.596Z,0
2017-06-24T01:32:51.962Z,0
2017-06-24T01:33:52.263Z,0
2017-06-24T01:34:52.252Z,0
2017-06-24T01:35:52.242Z,0
2017-06-24T01:36:52.459Z,0
2017-06-24T01:37:51.909Z,0
2017-06-24T01:38:52.546Z,0
2017-06-24T01:39:52.203Z,0
2017-06-24T01:40:52.237Z,0
2017-06-24T01:41:52.186Z,0
2017-06-24T01:42:52.175Z,0
2017-06-24T01:43:52.155Z,0
2017-06-24T01:44:51.215Z,0
2017-06-24T01:45:51.824Z,0
2017-06-24T01:46:51.818Z,0
2017-06-24T01:47:52.434Z,0
2017-06-24T01:48:51.790Z,0
2017-06-24T01:49:52.097Z,0
2017-06-24T01:50:51.770Z,0
2017-06-24T01:51:52.078Z,0
2017-06-24T01:52:52.069Z,0
2017-06-24T01:53:52.056Z,0
2017-06-24T01:54:51.731Z,0
2017-06-24T01:55:51.408Z,0
2017-06-24T01:56:51.394Z,0
2017-06-24T01:57:52.008Z,0
2017-06-24T01:58:52.310Z,0
2017-06-24T01:59:51.994Z,0
2017-06-24T02:00:52.298Z,0
2017-06-24T02:01:51.682Z,0
2017-06-24T02:02:51.682Z,0
2017-06-24T02:03:52.025Z,0
2017-06-24T02:04:51.627Z,0
2017-06-24T02:05:51.925Z,0
2017-06-24T02:06:51.915Z,0
2017-06-24T02:07:51.917Z,0
2017-06-24T02:08:51.893Z,0
2017-06-24T02:09:51.886Z,0
2017-06-24T02:10:51.567Z,0
2017-06-24T02:11:52.209Z,0
2017-06-24T02:12:51.851Z,0
2017-06-24T02:13:51.841Z,0
2017-06-24T02:14:51.519Z,0
2017-06-24T02:15:51.820Z,0
2017-06-24T02:16:51.498Z,0
2017-06-24T02:17:52.113Z,0
2017-06-24T02:18:51.479Z,0
2017-06-24T02:19:52.087Z,0
2017-06-24T02:20:51.769Z,0
2017-06-24T02:21:52.085Z,0
2017-06-24T02:22:52.065Z,0
2017-06-24T02:23:51.745Z,0
2017-06-24T02:24:51.421Z,0
2017-06-24T02:25:51.717Z,0
2017-06-24T02:26:51.392Z,0
2017-06-24T02:27:51.393Z,0
2017-06-24T02:28:52.014Z,0
2017-06-24T02:29:51.674Z,0
2017-06-24T02:30:51.657Z,0
2017-06-24T02:31:51.658Z,0
2017-06-24T02:32:51.025Z,0
2017-06-24T02:33:51.955Z,0
2017-06-24T02:34:50.990Z,0
2017-06-24T02:35:51.002Z,0
2017-06-24T02:36:51.614Z,0
2017-06-24T02:37:51.606Z,0
2017-06-24T02:38:50.947Z,0
2017-06-24T02:39:50.944Z,0
2017-06-24T02:40:51.886Z,0
2017-06-24T02:41:50.938Z,0
2017-06-24T02:42:51.848Z,0
2017-06-24T02:43:51.513Z,0
2017-06-24T02:44:51.508Z,0
2017-06-24T02:45:51.501Z,0
2017-06-24T02:46:51.166Z,0
2017-06-24T02:47:51.795Z,0
2017-06-24T02:48:51.466Z,0
2017-06-24T02:49:51.454Z,0
2017-06-24T02:50:51.445Z,0
2017-06-24T02:51:51.425Z,0
2017-06-24T02:52:51.730Z,0
2017-06-24T02:53:51.404Z,0
2017-06-24T02:54:50.776Z,0
2017-06-24T02:55:51.380Z,0
2017-06-24T02:56:51.081Z,0
2017-06-24T02:57:51.369Z,0
2017-06-24T02:58:51.041Z,0
2017-06-24T02:59:50.719Z,0
2017-06-24T03:00:51.015Z,0
2017-06-24T03:01:51.005Z,0
2017-06-24T03:02:51.311Z,0
2017-06-24T03:03:50.359Z,0
2017-06-24T03:04:51.601Z,0
2017-06-24T03:05:50.966Z,0
2017-06-24T03:06:50.952Z,0
2017-06-24T03:07:50.940Z,0
2017-06-24T03:08:51.556Z,0
2017-06-24T03:09:51.228Z,0
2017-06-24T03:10:50.912Z,0
2017-06-24T03:11:50.893Z,0
2017-06-24T03:12:51.199Z,0
2017-06-24T03:13:51.502Z,0
2017-06-24T03:14:50.858Z,0
2017-06-24T03:15:50.846Z,0
2017-06-24T03:16:50.843Z,0
2017-06-24T03:17:50.831Z,0
2017-06-24T03:18:51.131Z,5
2017-06-24T03:19:50.494Z,5
2017-06-24T03:20:51.107Z,5
2017-06-24T03:21:50.813Z,5
2017-06-24T03:22:51.084Z,5
2017-06-24T03:23:50.761Z,5
2017-06-24T03:24:50.440Z,5
2017-06-24T03:25:50.446Z,5
2017-06-24T03:26:51.042Z,5
2017-06-24T03:27:50.718Z,5
2017-06-24T03:28:50.710Z,5
2017-06-24T03:29:50.703Z,5
2017-06-24T03:30:50.678Z,10
2017-06-24T03:31:50.674Z,10
2017-06-24T03:32:50.664Z,10
2017-06-24T03:33:51.272Z,10
2017-06-24T03:34:50.328Z,10
2017-06-24T03:35:50.938Z,10
2017-06-24T03:36:51.135Z,10
2017-06-24T03:37:50.609Z,10
2017-06-24T03:38:51.218Z,10
2017-06-24T03:39:51.211Z,10
2017-06-24T03:40:50.254Z,10
2017-06-24T03:41:50.560Z,15
2017-06-24T03:42:50.549Z,15
2017-06-24T03:43:50.531Z,15
2017-06-24T03:44:51.151Z,15
2017-06-24T03:45:51.137Z,15
2017-06-24T03:46:50.531Z,15
2017-06-24T03:47:50.489Z,15
2017-06-24T03:48:50.790Z,15
2017-06-24T03:49:50.789Z,15
2017-06-24T03:50:50.462Z,15
2017-06-24T03:51:50.450Z,20
2017-06-24T03:52:50.429Z,20
2017-06-24T03:53:50.432Z,20
2017-06-24T03:54:50.112Z,20
2017-06-24T03:55:50.408Z,20
2017-06-24T03:56:50.392Z,20
2017-06-24T03:57:50.369Z,20
2017-06-24T03:58:50.994Z,20
2017-06-24T03:59:50.674Z,20
2017-06-24T04:00:50.338Z,25
2017-06-24T04:01:50.643Z,25
2017-06-24T04:02:50.944Z,25
2017-06-24T04:03:50.309Z,25
2017-06-24T04:04:50.295Z,30
2017-06-24T04:05:50.912Z,30
2017-06-24T04:06:50.588Z,30
2017-06-24T04:07:50.308Z,30
2017-06-24T04:08:50.878Z,30
2017-06-24T04:09:50.551Z,30
2017-06-24T04:10:50.853Z,30
2017-06-24T04:11:50.532Z,35
2017-06-24T04:12:50.213Z,35
2017-06-24T04:13:50.825Z,35
2017-06-24T04:14:49.865Z,35
2017-06-24T04:15:50.793Z,40
2017-06-24T04:16:50.514Z,40
2017-06-24T04:17:50.147Z,40
2017-06-24T04:18:50.129Z,40
2017-06-24T04:19:50.759Z,45
2017-06-24T04:20:50.587Z,40
2017-06-24T04:21:50.411Z,40
2017-06-24T04:22:50.720Z,45
2017-06-24T04:23:50.390Z,45
2017-06-24T04:24:50.375Z,40
2017-06-24T04:25:50.372Z,40
2017-06-24T04:26:50.719Z,45
2017-06-24T04:27:50.347Z,40
2017-06-24T04:28:50.332Z,40
2017-06-24T04:29:50.323Z,45
2017-06-24T04:30:50.311Z,45
2017-06-24T04:31:49.681Z,45
2017-06-24T04:32:50.340Z,45
2017-06-24T04:33:50.278Z,45
2017-06-24T04:34:49.954Z,45
2017-06-24T04:35:49.633Z,45
2017-06-24T04:36:50.240Z,45
2017-06-24T04:37:50.547Z,45
2017-06-24T04:38:49.910Z,45
2017-06-24T04:39:49.588Z,45
2017-06-24T04:40:50.510Z,45
2017-06-24T04:41:49.558Z,45
2017-06-24T04:42:49.861Z,45
2017-06-24T04:43:50.479Z,45
2017-06-24T04:44:50.155Z,50
2017-06-24T04:45:49.527Z,50
2017-06-24T04:46:49.197Z,45
2017-06-24T04:47:49.498Z,45
2017-06-24T04:48:50.110Z,45
2017-06-24T04:49:49.474Z,45
2017-06-24T04:50:50.402Z,45
2017-06-24T04:51:49.135Z,45
2017-06-24T04:52:50.066Z,50
2017-06-24T04:53:49.426Z,45
2017-06-24T04:54:50.363Z,45
2017-06-24T04:55:50.034Z,45
2017-06-24T04:56:50.335Z,45
2017-06-24T04:57:50.025Z,45
2017-06-24T04:58:49.991Z,45
2017-06-24T04:59:50.306Z,45
2017-06-24T05:00:49.981Z,45
2017-06-24T05:01:49.654Z,45
2017-06-24T05:02:49.651Z,50
2017-06-24T05:03:49.663Z,50
2017-06-24T05:04:49.630Z,55
2017-06-24T05:05:49.931Z,60
2017-06-24T05:06:49.612Z,60
2017-06-24T05:07:49.900Z,60
2017-06-24T05:08:49.891Z,55
2017-06-24T05:09:49.257Z,55
2017-06-24T05:10:49.876Z,50
2017-06-24T05:11:50.067Z,45
2017-06-24T05:12:49.264Z,45
2017-06-24T05:13:49.854Z,45
2017-06-24T05:14:49.824Z,45
2017-06-24T05:15:49.511Z,45
2017-06-24T05:16:49.495Z,45
2017-06-24T05:17:49.484Z,45
2017-06-24T05:18:49.780Z,50
2017-06-24T05:19:49.788Z,50
2017-06-24T05:20:49.762Z,50
2017-06-24T05:21:50.090Z,50
2017-06-24T05:22:49.442Z,55
2017-06-24T05:23:49.666Z,55
2017-06-24T05:24:49.727Z,55
2017-06-24T05:25:49.736Z,60
2017-06-24T05:26:49.380Z,65
2017-06-24T05:27:49.371Z,70
2017-06-24T05:28:49.670Z,70
2017-06-24T05:29:49.887Z,65
2017-06-24T05:30:49.340Z,60
2017-06-24T05:31:49.640Z,65
2017-06-24T05:32:49.516Z,60
2017-06-24T05:33:49.631Z,55
2017-06-24T05:34:49.608Z,60
2017-06-24T05:35:49.914Z,70
2017-06-24T05:36:50.119Z,70
2017-06-24T05:37:49.570Z,70
2017-06-24T05:38:49.561Z,60
2017-06-24T05:39:50.065Z,65
2017-06-24T05:40:49.225Z,65
2017-06-24T05:41:49.538Z,60
2017-06-24T05:42:49.201Z,60
2017-06-24T05:43:49.194Z,55
2017-06-24T05:44:49.187Z,55
2017-06-24T05:45:49.174Z,50
2017-06-24T05:46:49.483Z,50
2017-06-24T05:47:48.867Z,50
2017-06-24T05:48:48.835Z,50
2017-06-24T05:49:49.455Z,55
2017-06-24T05:50:49.434Z,50
2017-06-24T05:51:48.795Z,55
2017-06-24T05:52:49.426Z,50
2017-06-24T05:53:49.092Z,50
2017-06-24T05:54:49.078Z,50
2017-06-24T05:55:49.066Z,50
2017-06-24T05:56:49.679Z,55
2017-06-24T05:57:49.665Z,55
2017-06-24T05:58:48.401Z,65
2017-06-24T05:59:48.704Z,75
2017-06-24T06:00:49.033Z,75
2017-06-24T06:01:49.620Z,75
2017-06-24T06:02:48.992Z,85
2017-06-24T06:03:49.603Z,85
2017-06-24T06:04:49.276Z,90
2017-06-24T06:05:48.974Z,110
2017-06-24T06:06:49.568Z,110
2017-06-24T06:07:48.936Z,100
2017-06-24T06:08:49.546Z,100
2017-06-24T06:09:49.226Z,110
2017-06-24T06:10:48.906Z,120
2017-06-24T06:11:49.202Z,125
2017-06-24T06:12:49.188Z,130
2017-06-24T06:13:48.869Z,130
2017-06-24T06:14:48.881Z,135
2017-06-24T06:15:49.164Z,135
2017-06-24T06:16:49.156Z,130
2017-06-24T06:17:48.521Z,130
2017-06-24T06:18:48.524Z,130
2017-06-24T06:19:49.135Z,130
2017-06-24T06:20:48.999Z,130
2017-06-24T06:21:48.796Z,125
2017-06-24T06:22:48.785Z,115
2017-06-24T06:23:48.473Z,110
2017-06-24T06:24:48.758Z,115
2017-06-24T06:25:48.435Z,120
2017-06-24T06:26:48.741Z,125
2017-06-24T06:27:48.722Z,125
2017-06-24T06:28:48.399Z,130
2017-06-24T06:29:48.711Z,130
2017-06-24T06:30:48.384Z,125
2017-06-24T06:31:48.685Z,125
2017-06-24T06:32:49.294Z,125
2017-06-24T06:33:48.976Z,125
2017-06-24T06:34:48.969Z,130
2017-06-24T06:35:48.956Z,130
2017-06-24T06:36:48.633Z,130
2017-06-24T06:37:48.618Z,135
2017-06-24T06:38:48.921Z,135
2017-06-24T06:39:48.914Z,130
2017-06-24T06:40:48.650Z,130
2017-06-24T06:41:48.902Z,130
2017-06-24T06:42:48.893Z,125
2017-06-24T06:43:49.187Z,125
2017-06-24T06:44:48.869Z,125
2017-06-24T06:45:48.858Z,125
2017-06-24T06:46:48.539Z,125
2017-06-24T06:47:48.211Z,125
2017-06-24T06:48:47.884Z,130
2017-06-24T06:49:48.810Z,125
2017-06-24T06:50:48.802Z,125
2017-06-24T06:51:49.107Z,125
2017-06-24T06:52:48.776Z,125
2017-06-24T06:53:48.771Z,125
2017-06-24T06:54:49.093Z,125
2017-06-24T06:55:48.432Z,125
2017-06-24T06:56:47.856Z,130
2017-06-24T06:57:48.730Z,130
2017-06-24T06:58:48.720Z,130
2017-06-24T06:59:48.706Z,145
2017-06-24T07:00:49.008Z,150
2017-06-24T07:01:49.006Z,155
2017-06-24T07:02:48.056Z,165
2017-06-24T07:03:48.678Z,170
2017-06-24T07:04:48.971Z,175
2017-06-24T07:05:48.972Z,180
2017-06-24T07:06:48.633Z,190
2017-06-24T07:07:48.642Z,200
2017-06-24T07:08:48.310Z,210
2017-06-24T07:09:48.042Z,205
2017-06-24T07:10:48.620Z,200
2017-06-24T07:11:48.294Z,200
2017-06-24T07:12:48.907Z,205
2017-06-24T07:13:48.579Z,200
2017-06-24T07:14:47.947Z,215
2017-06-24T07:15:47.937Z,230
2017-06-24T07:16:48.548Z,250
2017-06-24T07:17:48.545Z,245
2017-06-24T07:18:48.534Z,240
2017-06-24T07:19:48.212Z,240
2017-06-24T07:20:48.200Z,240
2017-06-24T07:21:48.503Z,255
2017-06-24T07:22:48.494Z,315
2017-06-24T07:23:48.792Z,235
2017-06-24T07:24:48.179Z,250
2017-06-24T07:25:48.783Z,365
2017-06-24T07:26:47.828Z,630
2017-06-24T07:27:48.448Z,1035
2017-06-24T07:28:48.439Z,710
2017-06-24T07:29:48.434Z,1355
2017-06-24T07:30:48.741Z,1405
2017-06-24T07:31:48.409Z,1390
2017-06-24T07:32:48.400Z,1360
2017-06-24T07:33:48.396Z,1380
2017-06-24T07:34:48.390Z,1380
2017-06-24T07:35:48.389Z,1385
2017-06-24T07:36:48.264Z,590
2017-06-24T07:37:48.374Z,1365
2017-06-24T07:38:48.396Z,1405
2017-06-24T07:39:48.050Z,1310
2017-06-24T07:40:48.044Z,1265
2017-06-24T07:41:48.356Z,1125
2017-06-24T07:42:48.043Z,825
2017-06-24T07:43:48.055Z,810
2017-06-24T07:44:48.386Z,1270
2017-06-24T07:45:48.340Z,1355
2017-06-24T07:46:48.337Z,1215
2017-06-24T07:47:48.013Z,720
2017-06-24T07:48:47.730Z,1485
2017-06-24T07:49:48.311Z,880
2017-06-24T07:50:48.627Z,345
2017-06-24T07:51:48.649Z,1305
2017-06-24T07:52:48.002Z,635
2017-06-24T07:53:48.310Z,750
2017-06-24T07:54:48.301Z,1045
2017-06-24T07:55:48.325Z,1690
2017-06-24T07:56:48.003Z,1625
2017-06-24T07:57:48.618Z,1645
2017-06-24T07:58:48.287Z,1495
2017-06-24T07:59:48.282Z,1610
2017-06-24T08:00:47.651Z,1615
2017-06-24T08:01:47.987Z,1640
2017-06-24T08:02:47.956Z,1750
2017-06-24T08:03:48.265Z,1825
2017-06-24T08:04:48.263Z,635
2017-06-24T08:05:48.578Z,425
2017-06-24T08:06:48.571Z,540
2017-06-24T08:07:47.938Z,645
2017-06-24T08:08:48.311Z,480
2017-06-24T08:09:47.968Z,560
2017-06-24T08:10:48.562Z,575
2017-06-24T08:11:48.235Z,510
2017-06-24T08:12:48.232Z,550
2017-06-24T08:13:47.922Z,1035
2017-06-24T08:14:48.229Z,580
2017-06-24T08:15:48.535Z,480
2017-06-24T08:16:48.263Z,705
2017-06-24T08:17:48.549Z,1565
2017-06-24T08:18:47.895Z,1315
2017-06-24T08:19:47.903Z,480
2017-06-24T08:20:47.886Z,645
2017-06-24T08:21:47.566Z,560
2017-06-24T08:22:47.887Z,375
2017-06-24T08:23:48.509Z,365
2017-06-24T08:24:48.195Z,385
2017-06-24T08:25:47.556Z,430
2017-06-24T08:26:48.180Z,395
2017-06-24T08:27:47.863Z,350
2017-06-24T08:28:47.542Z,360
2017-06-24T08:29:47.539Z,340
2017-06-24T08:30:48.164Z,310
2017-06-24T08:31:47.835Z,320
2017-06-24T08:32:47.519Z,275
2017-06-24T08:33:47.509Z,275
2017-06-24T08:34:48.438Z,295
2017-06-24T08:35:47.499Z,240
2017-06-24T08:36:47.814Z,205
2017-06-24T08:37:48.451Z,160
2017-06-24T08:38:47.809Z,160
2017-06-24T08:39:47.486Z,170
2017-06-24T08:40:47.540Z,185
2017-06-24T08:41:48.132Z,205
2017-06-24T08:42:48.088Z,210
2017-06-24T08:43:48.079Z,215
2017-06-24T08:44:48.391Z,210
2017-06-24T08:45:48.073Z,210
2017-06-24T08:46:48.057Z,225
2017-06-24T08:47:47.766Z,260
2017-06-24T08:48:48.363Z,235
2017-06-24T08:49:47.417Z,210
2017-06-24T08:50:48.342Z,210
2017-06-24T08:51:47.712Z,235
2017-06-24T08:52:47.704Z,235
2017-06-24T08:53:47.695Z,225
2017-06-24T08:54:48.028Z,180
2017-06-24T08:55:47.058Z,180
2017-06-24T08:56:48.017Z,205
2017-06-24T08:57:47.986Z,230
2017-06-24T08:58:47.350Z,280
2017-06-24T08:59:47.345Z,400
2017-06-24T09:00:47.968Z,465
2017-06-24T09:01:47.638Z,555
2017-06-24T09:02:47.947Z,470
2017-06-24T09:03:48.242Z,345
2017-06-24T09:04:47.939Z,345
2017-06-24T09:05:47.929Z,435
2017-06-24T09:06:47.921Z,335
2017-06-24T09:07:47.605Z,250
2017-06-24T09:08:47.589Z,150
2017-06-24T09:09:47.895Z,110
2017-06-24T09:10:47.576Z,105
2017-06-24T09:11:47.880Z,100
2017-06-24T09:12:48.186Z,110
2017-06-24T09:13:48.192Z,115
2017-06-24T09:14:47.251Z,120
2017-06-24T09:15:47.534Z,135
2017-06-24T09:16:47.843Z,155
2017-06-24T09:17:47.843Z,155
2017-06-24T09:18:48.145Z,170
2017-06-24T09:19:47.509Z,170
2017-06-24T09:20:47.815Z,180
2017-06-24T09:21:47.807Z,210
2017-06-24T09:22:47.806Z,190
2017-06-24T09:23:47.794Z,160
2017-06-24T09:24:47.781Z,155
2017-06-24T09:25:47.784Z,140
2017-06-24T09:26:47.773Z,130
2017-06-24T09:27:47.779Z,125
2017-06-24T09:28:48.063Z,130
2017-06-24T09:29:47.760Z,130
2017-06-24T09:30:48.056Z,135
2017-06-24T09:31:47.761Z,130
2017-06-24T09:32:47.728Z,125
2017-06-24T09:33:47.722Z,125
2017-06-24T09:34:47.701Z,140
2017-06-24T09:35:47.383Z,150
2017-06-24T09:36:47.890Z,155
2017-06-24T09:37:47.992Z,170
2017-06-24T09:38:47.362Z,190
2017-06-24T09:39:47.409Z,210
2017-06-24T09:40:46.727Z,215
2017-06-24T09:41:47.652Z,205
2017-06-24T09:42:47.653Z,190
2017-06-24T09:43:47.976Z,170
2017-06-24T09:44:47.631Z,165
2017-06-24T09:45:47.620Z,155
2017-06-24T09:46:47.002Z,155
2017-06-24T09:47:47.658Z,150
2017-06-24T09:48:47.285Z,155
2017-06-24T09:49:47.597Z,165
2017-06-24T09:50:47.263Z,170
2017-06-24T09:51:47.273Z,175
2017-06-24T09:52:47.261Z,170
2017-06-24T09:53:47.254Z,155
2017-06-24T09:54:46.916Z,145
2017-06-24T09:55:47.855Z,150
2017-06-24T09:56:47.541Z,150
2017-06-24T09:57:47.546Z,145
2017-06-24T09:58:47.222Z,145
2017-06-24T09:59:47.818Z,150
2017-06-24T10:00:47.187Z,155
2017-06-24T10:01:47.175Z,155
2017-06-24T10:02:46.547Z,155
2017-06-24T10:03:47.795Z,145
2017-06-24T10:04:47.151Z,165
2017-06-24T10:05:47.771Z,210
2017-06-24T10:06:47.140Z,260
2017-06-24T10:07:47.126Z,280
2017-06-24T10:08:47.120Z,295
2017-06-24T10:09:47.746Z,260
2017-06-24T10:10:47.422Z,245
2017-06-24T10:11:47.413Z,265
2017-06-24T10:12:47.397Z,280
2017-06-24T10:13:47.395Z,270
2017-06-24T10:14:47.390Z,280
2017-06-24T10:15:46.752Z,295
2017-06-24T10:16:47.690Z,290
2017-06-24T10:17:47.360Z,270
2017-06-24T10:18:46.737Z,260
2017-06-24T10:19:47.355Z,260
2017-06-24T10:20:47.712Z,265
2017-06-24T10:21:47.333Z,265
2017-06-24T10:22:47.323Z,250
2017-06-24T10:23:47.019Z,240
2017-06-24T10:24:47.315Z,250
2017-06-24T10:25:47.622Z,240
2017-06-24T10:26:47.324Z,210
2017-06-24T10:27:46.991Z,190
2017-06-24T10:28:47.004Z,180
2017-06-24T10:29:47.312Z,175
2017-06-24T10:30:46.961Z,190
2017-06-24T10:31:46.340Z,220
2017-06-24T10:32:46.938Z,240
2017-06-24T10:33:47.563Z,235
2017-06-24T10:34:46.616Z,245
2017-06-24T10:35:47.554Z,255
2017-06-24T10:36:47.226Z,245
2017-06-24T10:37:47.217Z,255
2017-06-24T10:38:46.896Z,255
2017-06-24T10:39:47.200Z,270
2017-06-24T10:40:47.193Z,305
2017-06-24T10:41:46.869Z,380
2017-06-24T10:42:47.488Z,455
2017-06-24T10:43:46.864Z,435
2017-06-24T10:44:46.851Z,365
2017-06-24T10:45:46.839Z,335
2017-06-24T10:46:46.839Z,355
2017-06-24T10:47:46.550Z,275
2017-06-24T10:48:46.817Z,270
2017-06-24T10:49:46.814Z,295
2017-06-24T10:50:47.112Z,305
2017-06-24T10:51:47.108Z,280
2017-06-24T10:52:47.100Z,295
2017-06-24T10:53:46.467Z,255
2017-06-24T10:54:47.134Z,215
2017-06-24T10:55:47.092Z,215
2017-06-24T10:56:47.390Z,230
2017-06-24T10:57:47.067Z,210
2017-06-24T10:58:46.425Z,190
2017-06-24T10:59:46.433Z,195
2017-06-24T11:00:47.060Z,185
2017-06-24T11:01:47.028Z,180
2017-06-24T11:02:47.043Z,175
2017-06-24T11:03:46.702Z,150
2017-06-24T11:04:46.751Z,155
2017-06-24T11:05:47.002Z,165
2017-06-24T11:06:47.311Z,175
2017-06-24T11:07:46.675Z,170
2017-06-24T11:08:46.980Z,180
2017-06-24T11:09:46.967Z,180
2017-06-24T11:10:46.978Z,190
2017-06-24T11:11:46.650Z,190
2017-06-24T11:12:46.944Z,195
2017-06-24T11:13:46.945Z,195
2017-06-24T11:14:46.619Z,210
2017-06-24T11:15:46.608Z,205
2017-06-24T11:16:46.608Z,225
2017-06-24T11:17:46.279Z,230
2017-06-24T11:18:46.895Z,235
2017-06-24T11:19:46.900Z,230
2017-06-24T11:20:46.883Z,210
2017-06-24T11:21:46.873Z,190
2017-06-24T11:22:46.545Z,180
2017-06-24T11:23:47.165Z,175
2017-06-24T11:24:46.848Z,160
2017-06-24T11:25:46.839Z,160
2017-06-24T11:26:46.886Z,195
2017-06-24T11:27:47.139Z,205
2017-06-24T11:28:46.818Z,205
2017-06-24T11:29:46.499Z,215
2017-06-24T11:30:46.800Z,215
2017-06-24T11:31:47.102Z,240
2017-06-24T11:32:47.098Z,240
2017-06-24T11:33:46.460Z,230
2017-06-24T11:34:46.772Z,220
2017-06-24T11:35:46.506Z,235
2017-06-24T11:36:46.458Z,250
2017-06-24T11:37:46.758Z,245
2017-06-24T11:38:46.419Z,230
2017-06-24T11:39:46.726Z,240
2017-06-24T11:40:47.033Z,260
2017-06-24T11:41:46.756Z,245
2017-06-24T11:42:46.072Z,220
2017-06-24T11:43:46.693Z,200
2017-06-24T11:44:46.689Z,210
2017-06-24T11:45:46.682Z,230
2017-06-24T11:46:46.668Z,215
2017-06-24T11:47:46.661Z,220
2017-06-24T11:48:46.338Z,225
2017-06-24T11:49:46.336Z,225
2017-06-24T11:50:46.983Z,215
2017-06-24T11:51:46.626Z,220
2017-06-24T11:52:46.304Z,240
2017-06-24T11:53:45.983Z,235
2017-06-24T11:54:46.292Z,205
2017-06-24T11:55:46.299Z,185
2017-06-24T11:56:46.591Z,195
2017-06-24T11:57:45.957Z,190
2017-06-24T11:58:46.882Z,145
2017-06-24T11:59:46.585Z,140
2017-06-24T12:00:46.282Z,155
2017-06-24T12:01:46.862Z,150
2017-06-24T12:02:46.540Z,175
2017-06-24T12:03:45.965Z,200
2017-06-24T12:04:45.895Z,175
2017-06-24T12:05:45.890Z,140
2017-06-24T12:06:46.518Z,145
2017-06-24T12:07:45.885Z,140
2017-06-24T12:08:46.487Z,155
2017-06-24T12:09:46.545Z,160
2017-06-24T12:10:45.893Z,145
2017-06-24T12:11:46.474Z,160
2017-06-24T12:12:46.143Z,150
2017-06-24T12:13:46.465Z,175
2017-06-24T12:14:46.437Z,190
2017-06-24T12:15:45.810Z,200
2017-06-24T12:16:46.465Z,205
2017-06-24T12:17:46.744Z,210
2017-06-24T12:18:46.415Z,215
2017-06-24T12:19:46.408Z,215
2017-06-24T12:20:46.439Z,220
2017-06-24T12:21:46.084Z,225
2017-06-24T12:22:46.084Z,220
2017-06-24T12:23:46.372Z,210
2017-06-24T12:24:46.045Z,230
2017-06-24T12:25:46.048Z,225
2017-06-24T12:26:46.036Z,240
2017-06-24T12:27:46.334Z,230
2017-06-24T12:28:46.322Z,200
2017-06-24T12:29:45.399Z,200
2017-06-24T12:30:46.012Z,220
2017-06-24T12:31:46.622Z,215
2017-06-24T12:32:46.302Z,235
2017-06-24T12:33:46.298Z,230
2017-06-24T12:34:45.969Z,235
2017-06-24T12:35:46.582Z,255
2017-06-24T12:36:46.058Z,275
2017-06-24T12:37:45.970Z,280
2017-06-24T12:38:46.255Z,260
2017-06-24T12:39:45.610Z,260
2017-06-24T12:40:45.933Z,260
2017-06-24T12:41:46.245Z,275
2017-06-24T12:42:45.604Z,280
2017-06-24T12:43:45.892Z,265
2017-06-24T12:44:46.222Z,305
2017-06-24T12:45:45.567Z,355
2017-06-24T12:46:45.884Z,315
2017-06-24T12:47:46.179Z,305
2017-06-24T12:48:45.543Z,230
2017-06-24T12:49:46.210Z,185
2017-06-24T12:50:45.524Z,175
2017-06-24T12:51:45.515Z,170
2017-06-24T12:52:46.457Z,170
2017-06-24T12:53:45.815Z,180
2017-06-24T12:54:46.127Z,170
2017-06-24T12:55:46.128Z,230
2017-06-24T12:56:46.099Z,210
2017-06-24T12:57:45.782Z,185
2017-06-24T12:58:46.461Z,225
2017-06-24T12:59:45.772Z,240
2017-06-24T13:00:45.761Z,225
2017-06-24T13:01:46.379Z,240
2017-06-24T13:02:46.066Z,265
2017-06-24T13:03:45.740Z,260
2017-06-24T13:04:46.361Z,215
2017-06-24T13:05:46.045Z,215
2017-06-24T13:06:46.026Z,185
2017-06-24T13:07:46.015Z,205
2017-06-24T13:08:46.011Z,225
2017-06-24T13:09:46.004Z,255
2017-06-24T13:10:45.089Z,300
2017-06-24T13:11:45.367Z,370
2017-06-24T13:12:45.667Z,210
2017-06-24T13:13:45.968Z,180
2017-06-24T13:14:46.278Z,230
2017-06-24T13:15:45.646Z,240
2017-06-24T13:16:45.947Z,230
2017-06-24T13:17:46.252Z,200
2017-06-24T13:18:45.628Z,165
2017-06-24T13:19:46.260Z,145
2017-06-24T13:20:45.916Z,135
2017-06-24T13:21:45.596Z,125
2017-06-24T13:22:45.273Z,130
2017-06-24T13:23:46.217Z,160
2017-06-24T13:24:45.574Z,125
2017-06-24T13:25:45.895Z,120
2017-06-24T13:26:46.197Z,110
2017-06-24T13:27:46.175Z,135
2017-06-24T13:28:45.542Z,145
2017-06-24T13:29:45.846Z,130
2017-06-24T13:30:45.833Z,120
2017-06-24T13:31:45.516Z,130
2017-06-24T13:32:46.141Z,135
2017-06-24T13:33:45.894Z,150
2017-06-24T13:34:45.499Z,140
2017-06-24T13:35:46.119Z,130
2017-06-24T13:36:45.807Z,135
2017-06-24T13:37:45.675Z,130
2017-06-24T13:38:45.466Z,130
2017-06-24T13:39:45.774Z,140
2017-06-24T13:40:45.440Z,145
2017-06-24T13:41:45.747Z,140
2017-06-24T13:42:45.422Z,120
2017-06-24T13:43:45.416Z,100
2017-06-24T13:44:45.092Z,100
2017-06-24T13:45:46.028Z,110
2017-06-24T13:46:45.380Z,110
2017-06-24T13:47:45.076Z,120
2017-06-24T13:48:45.690Z,125
2017-06-24T13:49:45.680Z,115
2017-06-24T13:50:45.670Z,140
2017-06-24T13:51:45.662Z,115
2017-06-24T13:52:45.340Z,100
2017-06-24T13:53:45.012Z,115
2017-06-24T13:54:45.682Z,160
2017-06-24T13:55:45.322Z,150
2017-06-24T13:56:45.963Z,115
2017-06-24T13:57:45.609Z,115
2017-06-24T13:58:45.598Z,165
2017-06-24T13:59:45.277Z,180
2017-06-24T14:00:44.955Z,150
2017-06-24T14:01:44.959Z,165
2017-06-24T14:02:45.565Z,200
2017-06-24T14:03:45.879Z,175
2017-06-24T14:04:44.914Z,170